Sao Joao do Triunfo, Brazil
Current Conditions -  °F | °C
As of 7:00 PM on Friday 31 Oct 2014 (Local Time) from SBBI Reporting Station
Scattered Clouds Scattered Clouds  
Wind Chill: 72°   Ceiling: Unl
Heat Index: 72°   Visibility: 6mi
Dew Point: 64°   Wind: 8mph
Humidity: 78%   Direction: 200°SSW
Pressure: 29.97"   Gusts: NA
Location:  25.68°S, 50.3°W
Report Text: SBBI 312100Z 20007KT 9999 FEW030 SCT080 22/18 Q1015
Loading
Personal Weather Stations






























Interactive Weather Map
Tropical Storm Tracking
New forecast layout! Learn more

10-Day Weather Forecast

Advertisements
Track Severe Weather on mobile